Historique des stations

Station météo de Tour-en-Sologne

Altitude de la station : 97 m







Données météorologiques pour le 28/11/2021
Date
Heure
Températures Humidité Point de rosée Vitesse
du vent
Direction Rafales Windchill Pression Pluviométrie
Cumul
Date
Heure
Températures Humidité Point de rosée Vitesse
du vent
Direction Rafales Windchill Pression Pluviométrie
Cumul
28/11/2021 22:17-1.3 °C91 %-2.8 °C-ONO3 km/h-1.1 1009 hPa0.2 mm
28/11/2021 22:15-1.3 °C90 %-2.8 °C2 km/hONO32 km/h-1.7 1009 hPa0.2 mm
28/11/2021 22:04-1.1 °C90 %-2.2 °C-ONO6 km/h-1.1 1009 hPa0.2 mm
28/11/2021 22:00-1.0 °C90 %-2.2 °C2 km/hONO32 km/h-1.7 1008 hPa0.2 mm
28/11/2021 21:50-0.9 °C89 %-2.2 °C2 km/hONO6 km/h-1.7 1008 hPa0.2 mm
28/11/2021 21:45-0.7 °C89 %-2.2 °C2 km/hONO32 km/h-1.1 1008 hPa0.2 mm
28/11/2021 21:32-0.4 °C88 %-2.2 °C2 km/hONO6 km/h-1.1 1008 hPa0.2 mm
28/11/2021 21:30-0.3 °C88 %-2.2 °C2 km/hONO32 km/h-1.1 1008 hPa0.2 mm
28/11/2021 21:17-0.1 °C88 %-1.7 °C2 km/hONO8 km/h-0.6 1008 hPa0.2 mm
28/11/2021 21:15-0.1 °C88 %-1.7 °C2 km/hONO32 km/h-0.6 1008 hPa0.2 mm
28/11/2021 21:020.1 °C88 %-1.7 °C2 km/hONO10 km/h-0.6 1008 hPa0.2 mm
28/11/2021 21:000.1 °C88 %-1.7 °C2 km/hONO32 km/h-0.6 1008 hPa0.2 mm
28/11/2021 20:470.2 °C88 %-1.7 °C3 km/hNO10 km/h-1.1 1008 hPa0.2 mm
28/11/2021 20:450.2 °C88 %-1.7 °C3 km/hONO32 km/h-1.1 1008 hPa0.2 mm
28/11/2021 20:320.3 °C89 %-1.1 °C6 km/hONO10 km/h-1.1 1008 hPa0.2 mm
28/11/2021 20:300.3 °C88 %-1.1 °C2 km/hONO32 km/h0.0 1008 hPa0.2 mm
28/11/2021 20:170.5 °C88 %-1.1 °C3 km/hONO8 km/h-0.6 1008 hPa0.2 mm
28/11/2021 20:150.5 °C88 %-1.1 °C3 km/hONO32 km/h-0.6 1008 hPa0.2 mm
28/11/2021 20:010.6 °C88 %-1.1 °C5 km/hONO10 km/h-0.6 1008 hPa0.2 mm
28/11/2021 19:590.6 °C88 %-1.1 °C10 km/hONO32 km/h-2.2 1008 hPa0.2 mm
28/11/2021 19:460.7 °C88 %-1.1 °C2 km/hNO8 km/h0.0 1008 hPa0.2 mm
28/11/2021 19:440.7 °C87 %-1.1 °C5 km/hNO32 km/h-0.6 1008 hPa0.2 mm
28/11/2021 19:311.1 °C86 %-1.1 °C2 km/hNO11 km/h0.6 1008 hPa0.2 mm
28/11/2021 19:291.1 °C86 %-1.1 °C3 km/hNO32 km/h0.0 1008 hPa0.2 mm
28/11/2021 19:161.3 °C86 %-0.6 °C3 km/hONO11 km/h0.0 1008 hPa0.2 mm
28/11/2021 19:141.3 °C86 %-0.6 °C3 km/hONO32 km/h0.0 1008 hPa0.2 mm
28/11/2021 19:011.5 °C86 %-0.6 °C2 km/hN11 km/h1.1 1008 hPa0.2 mm
28/11/2021 18:591.6 °C86 %-0.6 °C2 km/hN32 km/h1.1 1008 hPa0.2 mm
28/11/2021 18:461.7 °C85 %-0.6 °C3 km/hN13 km/h0.6 1007 hPa0.2 mm
28/11/2021 18:441.7 °C85 %-0.6 °C8 km/hNO32 km/h-1.1 1007 hPa0.2 mm
28/11/2021 18:311.8 °C85 %-0.6 °C3 km/hONO13 km/h0.6 1007 hPa0.2 mm
28/11/2021 18:291.9 °C85 %-0.6 °C10 km/hONO32 km/h-1.1 1007 hPa0.2 mm
28/11/2021 18:162.1 °C84 %-0.6 °C3 km/hO11 km/h1.1 1007 hPa0.2 mm
28/11/2021 18:142.2 °C84 %0.0 °C10 km/hO32 km/h-0.6 1007 hPa0.2 mm
28/11/2021 18:012.5 °C83 %0.0 °C3 km/hONO14 km/h1.7 1007 hPa0.2 mm
28/11/2021 17:592.6 °C83 %0.0 °C6 km/hONO32 km/h1.1 1007 hPa0.2 mm
28/11/2021 17:462.8 °C83 %0.0 °C8 km/hO14 km/h0.6 1007 hPa0.2 mm
28/11/2021 17:442.8 °C83 %0.0 °C10 km/hNO32 km/h0.0 1007 hPa0.2 mm
28/11/2021 17:312.9 °C82 %0.0 °C13 km/hNO18 km/h-0.6 1007 hPa0.2 mm
28/11/2021 17:293.0 °C82 %0.0 °C3 km/hO32 km/h1.7 1007 hPa0.2 mm
28/11/2021 17:163.1 °C81 %0.0 °C6 km/hONO16 km/h1.7 1007 hPa0.2 mm
28/11/2021 17:143.1 °C82 %0.6 °C8 km/hNO32 km/h1.1 1007 hPa0.2 mm
28/11/2021 17:013.1 °C81 %0.0 °C11 km/hNO24 km/h0.6 1006 hPa0.2 mm
28/11/2021 16:593.1 °C81 %0.0 °C13 km/hNO32 km/h0.6 1006 hPa0.2 mm
28/11/2021 16:463.2 °C82 %0.6 °C13 km/hO18 km/h0.6 1006 hPa0.2 mm
28/11/2021 16:443.2 °C82 %0.6 °C14 km/hNO32 km/h0.0 1006 hPa0.2 mm
28/11/2021 16:313.3 °C82 %0.6 °C6 km/hONO18 km/h1.7 1006 hPa0.2 mm
28/11/2021 16:293.3 °C82 %0.6 °C10 km/hONO32 km/h0.6 1006 hPa0.2 mm
28/11/2021 16:163.8 °C81 %0.6 °C8 km/hNO24 km/h1.7 1006 hPa0.2 mm
28/11/2021 16:143.8 °C80 %0.6 °C10 km/hO32 km/h1.1 1006 hPa0.2 mm
28/11/2021 16:014.3 °C80 %1.1 °C10 km/hNO29 km/h2.2 1006 hPa0.2 mm
28/11/2021 15:594.3 °C80 %1.1 °C13 km/hONO32 km/h1.7 1006 hPa0.2 mm
28/11/2021 15:464.6 °C80 %1.7 °C8 km/hNO21 km/h2.2 1006 hPa0.2 mm
28/11/2021 15:444.7 °C80 %1.7 °C6 km/hNO32 km/h3.9 1006 hPa0.2 mm
28/11/2021 15:314.7 °C81 %1.7 °C16 km/hO24 km/h1.7 1006 hPa0.2 mm
28/11/2021 15:294.7 °C80 %1.7 °C10 km/hNNO32 km/h2.8 1006 hPa0.2 mm
28/11/2021 15:164.9 °C80 %1.7 °C11 km/hNO24 km/h2.2 1006 hPa0.2 mm
28/11/2021 15:144.9 °C80 %1.7 °C6 km/hONO32 km/h3.9 1006 hPa0.2 mm
28/11/2021 15:024.8 °C80 %1.7 °C10 km/hNO19 km/h2.8 1006 hPa0.2 mm
28/11/2021 14:594.8 °C81 %1.7 °C8 km/hNO32 km/h2.8 1006 hPa0.2 mm
28/11/2021 14:464.6 °C82 %1.7 °C8 km/hNNO23 km/h2.2 1006 hPa0.2 mm
28/11/2021 14:444.6 °C82 %1.7 °C18 km/hNNO32 km/h1.1 1006 hPa0.2 mm
28/11/2021 14:314.7 °C82 %1.7 °C10 km/hNNO21 km/h2.2 1006 hPa0.2 mm
28/11/2021 14:294.6 °C82 %1.7 °C8 km/hNO32 km/h2.2 1006 hPa0.2 mm
28/11/2021 14:164.7 °C81 %1.7 °C3 km/hNO24 km/h4.4 1006 hPa0.2 mm
28/11/2021 14:144.7 °C81 %1.7 °C14 km/hNO32 km/h1.7 1006 hPa0.2 mm
28/11/2021 14:014.7 °C82 %1.7 °C18 km/hNO29 km/h1.7 1006 hPa0.2 mm
28/11/2021 13:594.7 °C82 %1.7 °C14 km/hNNO32 km/h1.1 1006 hPa0.2 mm
28/11/2021 13:474.4 °C87 %2.8 °C13 km/hONO23 km/h1.7 1006 hPa0.2 mm
28/11/2021 13:444.3 °C86 %2.2 °C13 km/hNO32 km/h1.7 1006 hPa0.2 mm
28/11/2021 13:324.2 °C87 %2.2 °C13 km/hNO26 km/h1.7 1006 hPa0.2 mm
28/11/2021 13:304.2 °C87 %2.2 °C11 km/hNNO32 km/h1.7 1006 hPa0.2 mm
28/11/2021 13:174.0 °C89 %2.2 °C10 km/hNNO19 km/h1.1 1005 hPa0.2 mm
28/11/2021 13:153.9 °C90 %2.8 °C18 km/hNNO32 km/h0.0 1006 hPa0.2 mm
28/11/2021 13:023.8 °C92 %2.8 °C6 km/hNO21 km/h2.2 1006 hPa0.2 mm
28/11/2021 13:003.7 °C92 %2.8 °C14 km/hNNO32 km/h0.6 1006 hPa0.2 mm
28/11/2021 12:473.7 °C91 %2.2 °C14 km/hONO23 km/h0.6 1006 hPa0.2 mm
28/11/2021 12:453.8 °C91 %2.2 °C16 km/hONO32 km/h0.6 1006 hPa0.2 mm
28/11/2021 12:323.5 °C92 %2.2 °C16 km/hNO23 km/h-0.6 1006 hPa0.2 mm
28/11/2021 12:303.4 °C93 %2.2 °C14 km/hONO32 km/h0.0 1006 hPa0.2 mm
28/11/2021 12:173.3 °C93 %2.2 °C5 km/hONO19 km/h2.2 1006 hPa0.2 mm
28/11/2021 12:153.3 °C93 %2.2 °C10 km/hNO32 km/h0.6 1006 hPa0.2 mm
28/11/2021 12:023.3 °C93 %2.2 °C10 km/hNO19 km/h0.6 1006 hPa0.2 mm
28/11/2021 12:003.3 °C93 %2.2 °C3 km/hOSO32 km/h2.2 1006 hPa0.2 mm
28/11/2021 11:473.3 °C93 %2.2 °C8 km/hNO18 km/h1.1 1006 hPa0.2 mm
28/11/2021 11:453.3 °C93 %2.2 °C11 km/hNO32 km/h0.6 1006 hPa0.2 mm
28/11/2021 11:323.2 °C92 %2.2 °C8 km/hNNO19 km/h1.1 1006 hPa0.2 mm
28/11/2021 11:303.1 °C92 %2.2 °C14 km/hNO32 km/h0.0 1006 hPa0.2 mm
28/11/2021 11:173.1 °C93 %2.2 °C11 km/hNO21 km/h0.6 1006 hPa-
28/11/2021 11:153.1 °C93 %2.2 °C11 km/hNO32 km/h0.6 1006 hPa-
28/11/2021 11:022.9 °C94 %2.2 °C6 km/hONO18 km/h1.1 1006 hPa-
28/11/2021 11:003.0 °C94 %2.2 °C13 km/hONO32 km/h-0.6 1006 hPa-
28/11/2021 10:472.9 °C93 %1.7 °C10 km/hO21 km/h0.0 1006 hPa-
28/11/2021 10:452.9 °C93 %1.7 °C10 km/hONO32 km/h0.0 1006 hPa-
28/11/2021 10:322.9 °C93 %1.7 °C10 km/hNO23 km/h0.0 1006 hPa-
28/11/2021 10:302.8 °C93 %1.7 °C21 km/hNO32 km/h-1.7 1005 hPa-
28/11/2021 10:162.8 °C93 %1.7 °C14 km/hNO21 km/h-0.6 1005 hPa-
28/11/2021 10:152.8 °C93 %1.7 °C10 km/hNO32 km/h0.0 1005 hPa-
28/11/2021 10:022.7 °C93 %1.7 °C6 km/hONO21 km/h1.1 1005 hPa-
28/11/2021 10:002.7 °C93 %1.7 °C11 km/hNO32 km/h0.0 1005 hPa-
28/11/2021 09:472.6 °C93 %1.7 °C11 km/hNO24 km/h0.0 1005 hPa-
28/11/2021 09:452.6 °C93 %1.7 °C14 km/hONO32 km/h-0.6 1005 hPa-
28/11/2021 09:322.5 °C93 %1.7 °C13 km/hNO23 km/h-0.6 1005 hPa-
28/11/2021 09:302.4 °C93 %1.7 °C6 km/hNO32 km/h0.6 1005 hPa-
28/11/2021 09:172.5 °C93 %1.7 °C8 km/hONO23 km/h0.6 1005 hPa-
28/11/2021 09:152.6 °C93 %1.7 °C8 km/hNNO32 km/h0.6 1005 hPa-
28/11/2021 09:022.6 °C93 %1.7 °C11 km/hO21 km/h0.0 1005 hPa-
28/11/2021 09:002.7 °C93 %1.7 °C6 km/hNO32 km/h1.1 1005 hPa-
28/11/2021 08:472.7 °C92 %1.7 °C11 km/hSSO24 km/h0.0 1005 hPa-
28/11/2021 08:452.7 °C92 %1.7 °C8 km/hONO32 km/h0.6 1004 hPa-
28/11/2021 08:322.7 °C92 %1.7 °C10 km/hNO19 km/h0.0 1004 hPa-
28/11/2021 08:302.7 °C92 %1.7 °C8 km/hNNO32 km/h0.6 1004 hPa-
28/11/2021 08:172.7 °C92 %1.7 °C13 km/hONO18 km/h-0.6 1004 hPa-
28/11/2021 08:152.7 °C92 %1.7 °C8 km/hNO32 km/h0.6 1004 hPa-
28/11/2021 08:022.7 °C92 %1.7 °C10 km/hNO23 km/h0.0 1004 hPa-
28/11/2021 08:002.7 °C92 %1.7 °C14 km/hNO32 km/h-0.6 1004 hPa-
28/11/2021 07:472.7 °C92 %1.7 °C8 km/hSO19 km/h0.6 1004 hPa-
28/11/2021 07:452.7 °C92 %1.7 °C8 km/hNO32 km/h0.6 1004 hPa-
28/11/2021 07:322.7 °C92 %1.7 °C8 km/hO24 km/h0.6 1004 hPa-
28/11/2021 07:302.7 °C92 %1.7 °C8 km/hNO32 km/h0.6 1004 hPa-
28/11/2021 07:172.7 °C92 %1.7 °C14 km/hNO23 km/h-0.6 1004 hPa-
28/11/2021 07:152.7 °C92 %1.7 °C10 km/hNNO32 km/h0.0 1004 hPa-
28/11/2021 07:022.7 °C91 %1.7 °C11 km/hN19 km/h0.0 1004 hPa-
28/11/2021 07:002.7 °C91 %1.7 °C10 km/hN32 km/h0.0 1004 hPa-
28/11/2021 06:472.7 °C91 %1.7 °C10 km/hN21 km/h0.0 1004 hPa-
28/11/2021 06:452.7 °C91 %1.7 °C11 km/hN32 km/h0.0 1003 hPa-
28/11/2021 06:312.7 °C91 %1.7 °C6 km/hN19 km/h1.1 1003 hPa-
28/11/2021 06:292.7 °C91 %1.7 °C6 km/hN32 km/h1.1 1003 hPa-
28/11/2021 06:162.7 °C91 %1.7 °C8 km/hN19 km/h0.6 1003 hPa-
28/11/2021 06:142.7 °C91 %1.7 °C8 km/hN32 km/h0.6 1003 hPa-
28/11/2021 06:012.7 °C91 %1.7 °C11 km/hN21 km/h0.0 1003 hPa-
28/11/2021 05:592.7 °C91 %1.7 °C11 km/hN32 km/h0.0 1003 hPa-
28/11/2021 05:462.7 °C91 %1.7 °C10 km/hNO21 km/h0.0 1003 hPa-
28/11/2021 05:442.7 °C91 %1.7 °C11 km/hN32 km/h0.0 1003 hPa-
28/11/2021 05:312.7 °C91 %1.7 °C6 km/hN19 km/h1.1 1003 hPa-
28/11/2021 05:292.6 °C91 %1.1 °C16 km/hN32 km/h-1.1 1003 hPa-
28/11/2021 05:162.7 °C91 %1.7 °C16 km/hN24 km/h-1.1 1003 hPa-
28/11/2021 05:142.7 °C91 %1.7 °C13 km/hN32 km/h-0.6 1003 hPa-
28/11/2021 05:012.8 °C90 %1.1 °C6 km/hN23 km/h1.1 1003 hPa-
28/11/2021 04:592.7 °C90 %1.1 °C14 km/hN32 km/h-0.6 1003 hPa-
28/11/2021 04:462.8 °C91 %1.7 °C18 km/hN24 km/h-1.1 1003 hPa-
28/11/2021 04:442.8 °C91 %1.7 °C13 km/hN32 km/h-0.6 1003 hPa-
28/11/2021 04:312.8 °C91 %1.7 °C13 km/hN23 km/h-0.6 1003 hPa-
28/11/2021 04:292.8 °C91 %1.7 °C14 km/hN32 km/h-0.6 1003 hPa-
28/11/2021 04:162.8 °C91 %1.7 °C10 km/hN24 km/h0.0 1003 hPa-
28/11/2021 04:142.9 °C91 %1.7 °C14 km/hN32 km/h-0.6 1003 hPa-
28/11/2021 04:012.9 °C91 %1.7 °C13 km/hN32 km/h-0.6 1003 hPa-
28/11/2021 03:592.9 °C91 %1.7 °C8 km/hN32 km/h0.6 1003 hPa-
28/11/2021 03:462.9 °C91 %1.7 °C14 km/hN26 km/h-0.6 1003 hPa-
28/11/2021 03:442.9 °C92 %1.7 °C14 km/hN32 km/h-0.6 1003 hPa-
28/11/2021 03:312.9 °C92 %1.7 °C10 km/hN19 km/h0.0 1002 hPa-
28/11/2021 03:292.9 °C92 %1.7 °C10 km/hNO32 km/h0.0 1003 hPa-
28/11/2021 03:162.9 °C92 %1.7 °C14 km/hN29 km/h-0.6 1002 hPa-
28/11/2021 03:142.9 °C92 %1.7 °C13 km/hN32 km/h-0.6 1002 hPa-
28/11/2021 03:012.9 °C92 %1.7 °C11 km/hN26 km/h0.0 1002 hPa-
28/11/2021 02:592.9 °C92 %1.7 °C10 km/hN32 km/h0.0 1003 hPa-
28/11/2021 02:462.9 °C92 %1.7 °C13 km/hN26 km/h-0.6 1002 hPa-
28/11/2021 02:443.0 °C92 %1.7 °C19 km/hN32 km/h-1.7 1002 hPa-
28/11/2021 02:313.0 °C92 %1.7 °C8 km/hNO24 km/h0.6 1002 hPa-
28/11/2021 02:293.1 °C92 %1.7 °C8 km/hONO32 km/h1.1 1002 hPa-
28/11/2021 02:163.1 °C92 %2.2 °C13 km/hNO24 km/h0.6 1002 hPa-
28/11/2021 02:143.1 °C92 %2.2 °C11 km/hNO32 km/h0.6 1002 hPa-
28/11/2021 02:013.2 °C92 %2.2 °C11 km/hNO24 km/h0.6 1002 hPa-
28/11/2021 01:593.2 °C92 %2.2 °C8 km/hNO32 km/h1.1 1002 hPa-
28/11/2021 01:463.2 °C92 %2.2 °C13 km/hN31 km/h0.6 1002 hPa-
28/11/2021 01:443.2 °C92 %2.2 °C10 km/hNNO32 km/h0.6 1001 hPa-
28/11/2021 01:313.3 °C92 %2.2 °C19 km/hNO24 km/h-0.6 1001 hPa-
28/11/2021 01:293.3 °C92 %2.2 °C8 km/hO32 km/h1.1 1001 hPa-
28/11/2021 01:163.3 °C92 %2.2 °C13 km/hNO31 km/h0.6 1001 hPa-
28/11/2021 01:143.3 °C92 %2.2 °C10 km/hNO32 km/h0.6 1002 hPa-
28/11/2021 01:013.4 °C92 %2.2 °C10 km/hNO31 km/h0.6 1001 hPa-
28/11/2021 01:003.4 °C92 %2.2 °C8 km/hO31 km/h1.1 1001 hPa-
28/11/2021 00:463.4 °C92 %2.2 °C18 km/hNO24 km/h-0.6 1001 hPa-
28/11/2021 00:453.4 °C92 %2.2 °C11 km/hO24 km/h0.6 1001 hPa-
28/11/2021 00:313.4 °C93 %2.2 °C11 km/hO24 km/h0.6 1001 hPa-
28/11/2021 00:303.4 °C93 %2.2 °C21 km/hNO24 km/h-1.1 1001 hPa-
28/11/2021 00:163.3 °C93 %2.2 °C3 km/hNO23 km/h2.2 1001 hPa-
28/11/2021 00:153.3 °C93 %2.2 °C2 km/hONO24 km/h2.8 1001 hPa-
28/11/2021 00:013.3 °C94 %2.8 °C10 km/hNNO23 km/h0.6 1001 hPa-
28/11/2021 00:003.3 °C94 %2.8 °C11 km/hO14 km/h0.6 1001 hPa-


Minima :

Température : -1.3 °C
Humidité : 80 %
Point de rosée : -2.8 °C
Vent moyen : 2 km/h
Windchill : -2.2
Pression atm. : 1001 hPa
Maxima :

Température : 4.9 °C
Humidité : 94 %
Point de rosée : 2.8 °C
Vent moyen : 21 km/h
Windchill : 4.4
Pression atm. : 1009 hPa
Rafales max : 32 km/h
Cumul de pluie sur 24H : 0.2 mm

Tour-en-Sologne est une commune du département Loir-et-Cher (41).
La station météorologique du réseau de l'association la plus proche de Tour-en-Sologne est celle de Chailles



Icône Facebook Association Météo Centre Icône Twitter Association Météo Centre Icône Chaîne Youtube Association Météo Centre Icône contact Association Météo Centre Icône Insta Association Météo Centre